sensor_id;sensor_type;location;lat;lon;timestamp;P1;durP1;ratioP1;P2;durP2;ratioP2
11604;SDS011;5858;43.076;25.626;2023-08-31T00:00:10;18.77;;;16.88;;
11604;SDS011;5858;43.076;25.626;2023-08-31T00:02:38;19.05;;;16.67;;
11604;SDS011;5858;43.076;25.626;2023-08-31T00:05:06;17.60;;;15.60;;
11604;SDS011;5858;43.076;25.626;2023-08-31T00:07:33;17.55;;;15.65;;
11604;SDS011;5858;43.076;25.626;2023-08-31T00:10:00;17.65;;;15.07;;
11604;SDS011;5858;43.076;25.626;2023-08-31T00:12:35;20.27;;;15.63;;
11604;SDS011;5858;43.076;25.626;2023-08-31T00:15:03;18.00;;;14.35;;
11604;SDS011;5858;43.076;25.626;2023-08-31T00:17:30;16.65;;;14.23;;
11604;SDS011;5858;43.076;25.626;2023-08-31T00:19:58;19.67;;;16.45;;
11604;SDS011;5858;43.076;25.626;2023-08-31T00:22:24;17.58;;;15.70;;
11604;SDS011;5858;43.076;25.626;2023-08-31T00:24:51;19.17;;;15.68;;
11604;SDS011;5858;43.076;25.626;2023-08-31T00:27:19;17.45;;;15.60;;
11604;SDS011;5858;43.076;25.626;2023-08-31T00:29:48;18.20;;;15.70;;
11604;SDS011;5858;43.076;25.626;2023-08-31T00:32:16;17.73;;;16.02;;
11604;SDS011;5858;43.076;25.626;2023-08-31T00:34:43;17.65;;;15.75;;
11604;SDS011;5858;43.076;25.626;2023-08-31T00:37:10;20.58;;;16.92;;
11604;SDS011;5858;43.076;25.626;2023-08-31T00:39:37;17.48;;;15.32;;
11604;SDS011;5858;43.076;25.626;2023-08-31T00:42:05;21.45;;;16.73;;
11604;SDS011;5858;43.076;25.626;2023-08-31T00:44:32;18.80;;;16.60;;
11604;SDS011;5858;43.076;25.626;2023-08-31T00:47:01;20.83;;;17.90;;
11604;SDS011;5858;43.076;25.626;2023-08-31T00:49:28;20.42;;;18.10;;
11604;SDS011;5858;43.076;25.626;2023-08-31T00:51:55;19.95;;;17.85;;
11604;SDS011;5858;43.076;25.626;2023-08-31T00:54:22;22.88;;;18.73;;
11604;SDS011;5858;43.076;25.626;2023-08-31T00:56:52;27.40;;;19.27;;
11604;SDS011;5858;43.076;25.626;2023-08-31T00:59:19;18.50;;;16.63;;
11604;SDS011;5858;43.076;25.626;2023-08-31T01:01:48;18.55;;;16.42;;
11604;SDS011;5858;43.076;25.626;2023-08-31T01:04:21;21.70;;;18.20;;
11604;SDS011;5858;43.076;25.626;2023-08-31T01:07:00;21.02;;;17.95;;
11604;SDS011;5858;43.076;25.626;2023-08-31T01:09:39;23.08;;;17.63;;
11604;SDS011;5858;43.076;25.626;2023-08-31T01:12:15;24.08;;;18.88;;
11604;SDS011;5858;43.076;25.626;2023-08-31T01:14:48;24.38;;;21.30;;
11604;SDS011;5858;43.076;25.626;2023-08-31T01:17:19;30.83;;;24.05;;
11604;SDS011;5858;43.076;25.626;2023-08-31T01:19:51;28.98;;;23.83;;
11604;SDS011;5858;43.076;25.626;2023-08-31T01:22:24;28.38;;;22.42;;
11604;SDS011;5858;43.076;25.626;2023-08-31T01:24:59;25.73;;;21.52;;
11604;SDS011;5858;43.076;25.626;2023-08-31T01:27:29;24.13;;;20.08;;
11604;SDS011;5858;43.076;25.626;2023-08-31T01:29:57;24.27;;;18.45;;
11604;SDS011;5858;43.076;25.626;2023-08-31T01:32:26;23.05;;;18.30;;
11604;SDS011;5858;43.076;25.626;2023-08-31T01:34:53;21.15;;;18.42;;
11604;SDS011;5858;43.076;25.626;2023-08-31T01:37:24;20.85;;;17.08;;
11604;SDS011;5858;43.076;25.626;2023-08-31T01:39:57;21.02;;;17.98;;
11604;SDS011;5858;43.076;25.626;2023-08-31T01:42:32;22.17;;;17.77;;
11604;SDS011;5858;43.076;25.626;2023-08-31T01:45:00;20.05;;;16.40;;
11604;SDS011;5858;43.076;25.626;2023-08-31T01:47:29;19.55;;;17.45;;
11604;SDS011;5858;43.076;25.626;2023-08-31T01:49:57;20.42;;;17.52;;
11604;SDS011;5858;43.076;25.626;2023-08-31T01:52:24;21.90;;;18.27;;
11604;SDS011;5858;43.076;25.626;2023-08-31T01:54:51;27.30;;;18.38;;
11604;SDS011;5858;43.076;25.626;2023-08-31T01:57:20;20.05;;;17.77;;
11604;SDS011;5858;43.076;25.626;2023-08-31T01:59:47;19.88;;;16.38;;
11604;SDS011;5858;43.076;25.626;2023-08-31T02:02:13;18.67;;;16.67;;
11604;SDS011;5858;43.076;25.626;2023-08-31T02:04:42;17.92;;;16.08;;
11604;SDS011;5858;43.076;25.626;2023-08-31T02:07:09;18.85;;;16.80;;
11604;SDS011;5858;43.076;25.626;2023-08-31T02:09:36;26.10;;;17.15;;
11604;SDS011;5858;43.076;25.626;2023-08-31T02:12:03;20.15;;;15.73;;
11604;SDS011;5858;43.076;25.626;2023-08-31T02:14:32;17.90;;;16.00;;
11604;SDS011;5858;43.076;25.626;2023-08-31T02:16:59;17.70;;;16.00;;
11604;SDS011;5858;43.076;25.626;2023-08-31T02:19:26;18.40;;;16.38;;
11604;SDS011;5858;43.076;25.626;2023-08-31T02:21:53;21.27;;;16.23;;
11604;SDS011;5858;43.076;25.626;2023-08-31T02:24:20;18.95;;;16.95;;
11604;SDS011;5858;43.076;25.626;2023-08-31T02:26:47;18.83;;;16.83;;
11604;SDS011;5858;43.076;25.626;2023-08-31T02:29:15;18.08;;;16.27;;
11604;SDS011;5858;43.076;25.626;2023-08-31T02:31:43;19.48;;;16.02;;
11604;SDS011;5858;43.076;25.626;2023-08-31T02:34:10;21.00;;;16.10;;
11604;SDS011;5858;43.076;25.626;2023-08-31T02:36:37;18.67;;;16.63;;
11604;SDS011;5858;43.076;25.626;2023-08-31T02:39:04;21.15;;;17.38;;
11604;SDS011;5858;43.076;25.626;2023-08-31T02:41:31;20.08;;;18.02;;
11604;SDS011;5858;43.076;25.626;2023-08-31T02:43:58;18.98;;;16.15;;
11604;SDS011;5858;43.076;25.626;2023-08-31T02:46:25;17.85;;;15.88;;
11604;SDS011;5858;43.076;25.626;2023-08-31T02:51:39;17.20;;;15.35;;
11604;SDS011;5858;43.076;25.626;2023-08-31T02:54:06;16.85;;;14.95;;
11604;SDS011;5858;43.076;25.626;2023-08-31T02:56:33;15.77;;;13.80;;
11604;SDS011;5858;43.076;25.626;2023-08-31T02:59:00;15.73;;;13.45;;
11604;SDS011;5858;43.076;25.626;2023-08-31T03:01:27;17.40;;;13.63;;
11604;SDS011;5858;43.076;25.626;2023-08-31T03:03:54;14.00;;;12.60;;
11604;SDS011;5858;43.076;25.626;2023-08-31T03:06:22;15.02;;;13.50;;
11604;SDS011;5858;43.076;25.626;2023-08-31T03:08:49;20.20;;;14.10;;
11604;SDS011;5858;43.076;25.626;2023-08-31T03:11:16;15.00;;;13.40;;
11604;SDS011;5858;43.076;25.626;2023-08-31T03:13:43;14.88;;;13.27;;
11604;SDS011;5858;43.076;25.626;2023-08-31T03:16:10;15.32;;;12.93;;
11604;SDS011;5858;43.076;25.626;2023-08-31T03:18:37;14.15;;;12.77;;
11604;SDS011;5858;43.076;25.626;2023-08-31T03:21:04;15.30;;;11.80;;
11604;SDS011;5858;43.076;25.626;2023-08-31T03:23:32;13.65;;;12.27;;
11604;SDS011;5858;43.076;25.626;2023-08-31T03:25:59;16.23;;;12.57;;
11604;SDS011;5858;43.076;25.626;2023-08-31T03:28:28;13.70;;;11.68;;
11604;SDS011;5858;43.076;25.626;2023-08-31T03:30:55;13.65;;;12.30;;
11604;SDS011;5858;43.076;25.626;2023-08-31T03:33:22;16.90;;;12.70;;
11604;SDS011;5858;43.076;25.626;2023-08-31T03:35:49;14.95;;;12.52;;
11604;SDS011;5858;43.076;25.626;2023-08-31T03:38:16;17.45;;;12.63;;
11604;SDS011;5858;43.076;25.626;2023-08-31T03:40:53;13.18;;;11.77;;
11604;SDS011;5858;43.076;25.626;2023-08-31T03:43:21;15.18;;;12.75;;
11604;SDS011;5858;43.076;25.626;2023-08-31T03:45:48;14.60;;;12.90;;
11604;SDS011;5858;43.076;25.626;2023-08-31T03:48:20;15.40;;;13.35;;
11604;SDS011;5858;43.076;25.626;2023-08-31T03:50:48;16.27;;;12.30;;
11604;SDS011;5858;43.076;25.626;2023-08-31T03:53:16;15.63;;;13.15;;
11604;SDS011;5858;43.076;25.626;2023-08-31T03:55:43;14.27;;;12.88;;
11604;SDS011;5858;43.076;25.626;2023-08-31T03:58:11;13.68;;;11.90;;
11604;SDS011;5858;43.076;25.626;2023-08-31T04:00:41;13.90;;;12.48;;
11604;SDS011;5858;43.076;25.626;2023-08-31T04:03:08;16.20;;;12.82;;
11604;SDS011;5858;43.076;25.626;2023-08-31T04:05:35;16.13;;;12.98;;
11604;SDS011;5858;43.076;25.626;2023-08-31T04:08:02;13.95;;;12.45;;
11604;SDS011;5858;43.076;25.626;2023-08-31T04:10:30;15.02;;;12.30;;
11604;SDS011;5858;43.076;25.626;2023-08-31T04:12:58;16.67;;;12.88;;
11604;SDS011;5858;43.076;25.626;2023-08-31T04:15:26;15.82;;;13.07;;
11604;SDS011;5858;43.076;25.626;2023-08-31T04:17:53;13.90;;;12.40;;
11604;SDS011;5858;43.076;25.626;2023-08-31T04:20:20;14.73;;;13.18;;
11604;SDS011;5858;43.076;25.626;2023-08-31T04:22:47;17.48;;;12.85;;
11604;SDS011;5858;43.076;25.626;2023-08-31T04:25:14;14.82;;;12.20;;
11604;SDS011;5858;43.076;25.626;2023-08-31T04:27:41;13.18;;;11.13;;
11604;SDS011;5858;43.076;25.626;2023-08-31T04:30:09;14.05;;;11.18;;
11604;SDS011;5858;43.076;25.626;2023-08-31T04:32:40;14.18;;;10.68;;
11604;SDS011;5858;43.076;25.626;2023-08-31T04:35:07;14.98;;;11.25;;
11604;SDS011;5858;43.076;25.626;2023-08-31T04:37:35;11.80;;;10.40;;
11604;SDS011;5858;43.076;25.626;2023-08-31T04:40:02;12.98;;;11.70;;
11604;SDS011;5858;43.076;25.626;2023-08-31T04:42:33;11.60;;;10.50;;
11604;SDS011;5858;43.076;25.626;2023-08-31T04:45:01;12.45;;;10.73;;
11604;SDS011;5858;43.076;25.626;2023-08-31T04:47:28;12.85;;;10.50;;
11604;SDS011;5858;43.076;25.626;2023-08-31T04:49:56;13.93;;;10.98;;
11604;SDS011;5858;43.076;25.626;2023-08-31T04:52:25;13.98;;;9.85;;
11604;SDS011;5858;43.076;25.626;2023-08-31T04:54:52;13.05;;;11.50;;
11604;SDS011;5858;43.076;25.626;2023-08-31T04:57:19;13.48;;;10.52;;
11604;SDS011;5858;43.076;25.626;2023-08-31T04:59:46;15.35;;;11.30;;
11604;SDS011;5858;43.076;25.626;2023-08-31T05:02:14;11.02;;;9.82;;
11604;SDS011;5858;43.076;25.626;2023-08-31T05:04:40;11.55;;;9.52;;
11604;SDS011;5858;43.076;25.626;2023-08-31T05:07:09;12.50;;;10.45;;
11604;SDS011;5858;43.076;25.626;2023-08-31T05:09:36;13.38;;;10.43;;
11604;SDS011;5858;43.076;25.626;2023-08-31T05:12:03;19.80;;;9.93;;
11604;SDS011;5858;43.076;25.626;2023-08-31T05:14:30;13.43;;;10.02;;
11604;SDS011;5858;43.076;25.626;2023-08-31T05:17:02;15.30;;;8.88;;
11604;SDS011;5858;43.076;25.626;2023-08-31T05:19:30;16.08;;;9.05;;
11604;SDS011;5858;43.076;25.626;2023-08-31T05:21:59;15.80;;;9.82;;
11604;SDS011;5858;43.076;25.626;2023-08-31T05:24:29;14.15;;;8.95;;
11604;SDS011;5858;43.076;25.626;2023-08-31T05:26:56;14.48;;;9.40;;
11604;SDS011;5858;43.076;25.626;2023-08-31T05:29:23;10.25;;;8.88;;
11604;SDS011;5858;43.076;25.626;2023-08-31T05:31:51;12.95;;;9.15;;
11604;SDS011;5858;43.076;25.626;2023-08-31T05:34:20;12.00;;;9.63;;
11604;SDS011;5858;43.076;25.626;2023-08-31T05:36:48;18.02;;;9.45;;
11604;SDS011;5858;43.076;25.626;2023-08-31T05:39:23;13.80;;;8.73;;
11604;SDS011;5858;43.076;25.626;2023-08-31T05:45:07;18.83;;;12.15;;
11604;SDS011;5858;43.076;25.626;2023-08-31T05:47:42;13.13;;;11.70;;
11604;SDS011;5858;43.076;25.626;2023-08-31T05:50:10;16.08;;;12.07;;
11604;SDS011;5858;43.076;25.626;2023-08-31T05:52:43;15.95;;;10.85;;
11604;SDS011;5858;43.076;25.626;2023-08-31T05:55:19;14.45;;;10.57;;
11604;SDS011;5858;43.076;25.626;2023-08-31T05:58:05;13.18;;;9.77;;
11604;SDS011;5858;43.076;25.626;2023-08-31T06:10:28;13.00;;;10.55;;
11604;SDS011;5858;43.076;25.626;2023-08-31T06:13:19;13.27;;;10.77;;
11604;SDS011;5858;43.076;25.626;2023-08-31T06:15:47;20.30;;;11.43;;
11604;SDS011;5858;43.076;25.626;2023-08-31T06:18:23;15.82;;;10.20;;
11604;SDS011;5858;43.076;25.626;2023-08-31T06:20:52;14.73;;;11.38;;
11604;SDS011;5858;43.076;25.626;2023-08-31T06:23:30;11.75;;;10.30;;
11604;SDS011;5858;43.076;25.626;2023-08-31T06:26:04;15.18;;;11.35;;
11604;SDS011;5858;43.076;25.626;2023-08-31T06:28:33;11.65;;;9.90;;
11604;SDS011;5858;43.076;25.626;2023-08-31T06:31:00;18.50;;;10.82;;
11604;SDS011;5858;43.076;25.626;2023-08-31T06:33:27;12.50;;;11.05;;
11604;SDS011;5858;43.076;25.626;2023-08-31T06:35:59;13.48;;;10.50;;
11604;SDS011;5858;43.076;25.626;2023-08-31T06:38:28;17.55;;;10.60;;
11604;SDS011;5858;43.076;25.626;2023-08-31T06:41:14;11.50;;;10.30;;
11604;SDS011;5858;43.076;25.626;2023-08-31T06:43:45;14.52;;;11.60;;
11604;SDS011;5858;43.076;25.626;2023-08-31T06:46:14;19.13;;;11.85;;
11604;SDS011;5858;43.076;25.626;2023-08-31T06:49:08;12.52;;;10.93;;
11604;SDS011;5858;43.076;25.626;2023-08-31T06:51:54;15.77;;;11.68;;
11604;SDS011;5858;43.076;25.626;2023-08-31T07:18:14;9.65;;;8.60;;
11604;SDS011;5858;43.076;25.626;2023-08-31T07:32:05;9.63;;;8.73;;
11604;SDS011;5858;43.076;25.626;2023-08-31T07:40:47;9.07;;;8.18;;
11604;SDS011;5858;43.076;25.626;2023-08-31T07:46:57;6.35;;;5.75;;
11604;SDS011;5858;43.076;25.626;2023-08-31T07:49:32;7.95;;;5.78;;
11604;SDS011;5858;43.076;25.626;2023-08-31T07:52:03;6.80;;;5.53;;
11604;SDS011;5858;43.076;25.626;2023-08-31T07:54:32;8.63;;;5.65;;
11604;SDS011;5858;43.076;25.626;2023-08-31T07:57:15;8.73;;;5.53;;
11604;SDS011;5858;43.076;25.626;2023-08-31T07:59:43;7.28;;;5.90;;
11604;SDS011;5858;43.076;25.626;2023-08-31T08:02:18;10.45;;;6.93;;
11604;SDS011;5858;43.076;25.626;2023-08-31T08:11:16;5.40;;;4.90;;
11604;SDS011;5858;43.076;25.626;2023-08-31T08:13:46;10.70;;;5.50;;
11604;SDS011;5858;43.076;25.626;2023-08-31T08:16:35;8.40;;;5.20;;
11604;SDS011;5858;43.076;25.626;2023-08-31T08:19:43;5.47;;;4.97;;
11604;SDS011;5858;43.076;25.626;2023-08-31T08:25:19;5.60;;;4.55;;
11604;SDS011;5858;43.076;25.626;2023-08-31T08:28:14;5.30;;;4.40;;
11604;SDS011;5858;43.076;25.626;2023-08-31T08:31:08;5.43;;;3.60;;
11604;SDS011;5858;43.076;25.626;2023-08-31T08:33:49;5.10;;;4.38;;
11604;SDS011;5858;43.076;25.626;2023-08-31T08:36:21;4.35;;;3.58;;
11604;SDS011;5858;43.076;25.626;2023-08-31T08:39:06;5.25;;;3.80;;
11604;SDS011;5858;43.076;25.626;2023-08-31T08:41:34;5.45;;;3.75;;
11604;SDS011;5858;43.076;25.626;2023-08-31T08:44:08;7.13;;;3.35;;
11604;SDS011;5858;43.076;25.626;2023-08-31T08:46:52;4.07;;;3.70;;
11604;SDS011;5858;43.076;25.626;2023-08-31T08:49:20;4.90;;;3.72;;
11604;SDS011;5858;43.076;25.626;2023-08-31T08:51:51;4.97;;;3.53;;
11604;SDS011;5858;43.076;25.626;2023-08-31T08:54:56;4.50;;;3.35;;
11604;SDS011;5858;43.076;25.626;2023-08-31T09:00:21;7.95;;;3.47;;
11604;SDS011;5858;43.076;25.626;2023-08-31T09:03:05;6.57;;;3.42;;
11604;SDS011;5858;43.076;25.626;2023-08-31T09:12:23;3.90;;;3.03;;
11604;SDS011;5858;43.076;25.626;2023-08-31T09:15:14;6.53;;;3.20;;
11604;SDS011;5858;43.076;25.626;2023-08-31T09:17:55;5.57;;;3.13;;
11604;SDS011;5858;43.076;25.626;2023-08-31T09:24:07;5.13;;;3.10;;
11604;SDS011;5858;43.076;25.626;2023-08-31T09:26:43;3.95;;;3.03;;
11604;SDS011;5858;43.076;25.626;2023-08-31T09:42:41;6.30;;;3.70;;
11604;SDS011;5858;43.076;25.626;2023-08-31T09:45:34;6.65;;;3.65;;
11604;SDS011;5858;43.076;25.626;2023-08-31T09:48:12;5.78;;;3.13;;
11604;SDS011;5858;43.076;25.626;2023-08-31T09:50:49;7.78;;;4.18;;
11604;SDS011;5858;43.076;25.626;2023-08-31T09:53:25;5.43;;;3.22;;
11604;SDS011;5858;43.076;25.626;2023-08-31T09:56:24;5.38;;;3.47;;
11604;SDS011;5858;43.076;25.626;2023-08-31T09:59:07;6.63;;;4.43;;
11604;SDS011;5858;43.076;25.626;2023-08-31T10:01:56;9.02;;;3.95;;
11604;SDS011;5858;43.076;25.626;2023-08-31T10:04:28;5.75;;;3.92;;
11604;SDS011;5858;43.076;25.626;2023-08-31T10:07:16;5.68;;;3.92;;
11604;SDS011;5858;43.076;25.626;2023-08-31T10:09:59;5.45;;;3.45;;
11604;SDS011;5858;43.076;25.626;2023-08-31T10:12:44;6.15;;;3.90;;
11604;SDS011;5858;43.076;25.626;2023-08-31T10:15:30;5.68;;;3.13;;
11604;SDS011;5858;43.076;25.626;2023-08-31T10:18:52;5.22;;;3.58;;
11604;SDS011;5858;43.076;25.626;2023-08-31T10:25:02;5.03;;;3.50;;
11604;SDS011;5858;43.076;25.626;2023-08-31T10:28:10;3.80;;;3.42;;
11604;SDS011;5858;43.076;25.626;2023-08-31T10:36:54;7.10;;;3.50;;
11604;SDS011;5858;43.076;25.626;2023-08-31T10:40:06;5.03;;;3.20;;
11604;SDS011;5858;43.076;25.626;2023-08-31T10:42:48;3.60;;;3.30;;
11604;SDS011;5858;43.076;25.626;2023-08-31T10:45:45;6.60;;;3.63;;
11604;SDS011;5858;43.076;25.626;2023-08-31T10:48:31;4.28;;;3.58;;
11604;SDS011;5858;43.076;25.626;2023-08-31T10:52:00;7.88;;;4.28;;
11604;SDS011;5858;43.076;25.626;2023-08-31T10:55:24;8.18;;;5.85;;
11604;SDS011;5858;43.076;25.626;2023-08-31T10:58:31;4.45;;;3.45;;
11604;SDS011;5858;43.076;25.626;2023-08-31T11:02:26;3.88;;;3.35;;
11604;SDS011;5858;43.076;25.626;2023-08-31T11:10:58;5.80;;;3.13;;
11604;SDS011;5858;43.076;25.626;2023-08-31T11:14:09;4.88;;;3.47;;
11604;SDS011;5858;43.076;25.626;2023-08-31T11:16:45;5.40;;;3.85;;
11604;SDS011;5858;43.076;25.626;2023-08-31T11:19:34;6.72;;;3.78;;
11604;SDS011;5858;43.076;25.626;2023-08-31T11:32:31;4.35;;;3.80;;
11604;SDS011;5858;43.076;25.626;2023-08-31T11:42:21;6.05;;;3.90;;
11604;SDS011;5858;43.076;25.626;2023-08-31T11:45:02;7.35;;;4.13;;
11604;SDS011;5858;43.076;25.626;2023-08-31T11:47:34;4.43;;;3.75;;
11604;SDS011;5858;43.076;25.626;2023-08-31T11:50:22;5.95;;;3.58;;
11604;SDS011;5858;43.076;25.626;2023-08-31T12:03:36;10.27;;;4.57;;
11604;SDS011;5858;43.076;25.626;2023-08-31T12:06:14;9.13;;;3.47;;
11604;SDS011;5858;43.076;25.626;2023-08-31T12:08:49;8.38;;;3.85;;
11604;SDS011;5858;43.076;25.626;2023-08-31T12:11:19;6.00;;;4.13;;
11604;SDS011;5858;43.076;25.626;2023-08-31T12:14:19;6.35;;;3.80;;
11604;SDS011;5858;43.076;25.626;2023-08-31T12:16:48;4.80;;;3.72;;
11604;SDS011;5858;43.076;25.626;2023-08-31T12:19:20;5.57;;;3.78;;
11604;SDS011;5858;43.076;25.626;2023-08-31T12:21:54;7.80;;;4.13;;
11604;SDS011;5858;43.076;25.626;2023-08-31T12:24:21;5.22;;;3.55;;
11604;SDS011;5858;43.076;25.626;2023-08-31T12:26:49;5.72;;;3.75;;
11604;SDS011;5858;43.076;25.626;2023-08-31T12:29:24;4.45;;;3.50;;
11604;SDS011;5858;43.076;25.626;2023-08-31T12:32:21;6.88;;;4.00;;
11604;SDS011;5858;43.076;25.626;2023-08-31T12:35:24;7.15;;;3.80;;
11604;SDS011;5858;43.076;25.626;2023-08-31T12:38:19;5.85;;;4.03;;
11604;SDS011;5858;43.076;25.626;2023-08-31T12:41:00;8.07;;;3.60;;
11604;SDS011;5858;43.076;25.626;2023-08-31T12:43:41;5.00;;;3.50;;
11604;SDS011;5858;43.076;25.626;2023-08-31T12:46:08;6.00;;;3.67;;
11604;SDS011;5858;43.076;25.626;2023-08-31T12:48:38;5.25;;;3.97;;
11604;SDS011;5858;43.076;25.626;2023-08-31T12:51:09;5.07;;;3.65;;
11604;SDS011;5858;43.076;25.626;2023-08-31T12:53:41;4.35;;;3.60;;
11604;SDS011;5858;43.076;25.626;2023-08-31T12:56:11;5.95;;;3.78;;
11604;SDS011;5858;43.076;25.626;2023-08-31T12:58:50;11.50;;;4.50;;
11604;SDS011;5858;43.076;25.626;2023-08-31T13:01:30;5.43;;;4.75;;
11604;SDS011;5858;43.076;25.626;2023-08-31T13:03:58;8.07;;;5.13;;
11604;SDS011;5858;43.076;25.626;2023-08-31T13:06:39;7.63;;;5.35;;
11604;SDS011;5858;43.076;25.626;2023-08-31T13:12:49;7.70;;;4.55;;
11604;SDS011;5858;43.076;25.626;2023-08-31T13:15:16;5.82;;;3.63;;
11604;SDS011;5858;43.076;25.626;2023-08-31T13:18:01;8.90;;;5.68;;
11604;SDS011;5858;43.076;25.626;2023-08-31T13:20:34;6.75;;;4.70;;
11604;SDS011;5858;43.076;25.626;2023-08-31T13:23:07;8.18;;;4.32;;
11604;SDS011;5858;43.076;25.626;2023-08-31T13:25:37;5.45;;;4.43;;
11604;SDS011;5858;43.076;25.626;2023-08-31T13:28:23;6.03;;;3.75;;
11604;SDS011;5858;43.076;25.626;2023-08-31T13:30:57;7.00;;;4.00;;
11604;SDS011;5858;43.076;25.626;2023-08-31T13:33:30;5.28;;;3.88;;
11604;SDS011;5858;43.076;25.626;2023-08-31T13:36:49;5.68;;;4.38;;
11604;SDS011;5858;43.076;25.626;2023-08-31T13:45:07;5.90;;;3.92;;
11604;SDS011;5858;43.076;25.626;2023-08-31T13:49:11;6.47;;;4.20;;
11604;SDS011;5858;43.076;25.626;2023-08-31T13:52:19;8.75;;;4.65;;
11604;SDS011;5858;43.076;25.626;2023-08-31T13:55:17;6.40;;;4.35;;
11604;SDS011;5858;43.076;25.626;2023-08-31T13:59:32;9.48;;;4.68;;
11604;SDS011;5858;43.076;25.626;2023-08-31T14:08:47;7.05;;;3.85;;
11604;SDS011;5858;43.076;25.626;2023-08-31T14:11:27;7.45;;;4.43;;
11604;SDS011;5858;43.076;25.626;2023-08-31T14:14:35;7.85;;;4.05;;
11604;SDS011;5858;43.076;25.626;2023-08-31T14:22:40;5.35;;;4.13;;
11604;SDS011;5858;43.076;25.626;2023-08-31T14:25:36;7.95;;;4.38;;
11604;SDS011;5858;43.076;25.626;2023-08-31T14:28:11;5.93;;;4.55;;
11604;SDS011;5858;43.076;25.626;2023-08-31T14:34:24;8.07;;;4.22;;
11604;SDS011;5858;43.076;25.626;2023-08-31T14:40:32;4.80;;;4.05;;
11604;SDS011;5858;43.076;25.626;2023-08-31T14:43:56;4.30;;;3.90;;
11604;SDS011;5858;43.076;25.626;2023-08-31T14:47:05;9.07;;;4.47;;
11604;SDS011;5858;43.076;25.626;2023-08-31T14:49:58;6.97;;;3.60;;
11604;SDS011;5858;43.076;25.626;2023-08-31T14:53:09;6.00;;;4.47;;
11604;SDS011;5858;43.076;25.626;2023-08-31T14:55:44;7.22;;;4.30;;
11604;SDS011;5858;43.076;25.626;2023-08-31T14:58:51;6.97;;;3.83;;
11604;SDS011;5858;43.076;25.626;2023-08-31T15:05:22;5.70;;;4.20;;
11604;SDS011;5858;43.076;25.626;2023-08-31T15:08:36;5.97;;;3.70;;
11604;SDS011;5858;43.076;25.626;2023-08-31T15:14:24;6.60;;;3.85;;
11604;SDS011;5858;43.076;25.626;2023-08-31T15:16:55;7.15;;;4.57;;
11604;SDS011;5858;43.076;25.626;2023-08-31T15:19:22;6.60;;;4.40;;
11604;SDS011;5858;43.076;25.626;2023-08-31T15:21:52;10.25;;;5.30;;
11604;SDS011;5858;43.076;25.626;2023-08-31T15:24:19;10.43;;;5.40;;
11604;SDS011;5858;43.076;25.626;2023-08-31T15:26:47;11.80;;;5.85;;
11604;SDS011;5858;43.076;25.626;2023-08-31T15:29:33;7.70;;;5.32;;
11604;SDS011;5858;43.076;25.626;2023-08-31T15:32:10;7.47;;;5.75;;
11604;SDS011;5858;43.076;25.626;2023-08-31T15:34:47;8.70;;;5.95;;
11604;SDS011;5858;43.076;25.626;2023-08-31T15:41:25;7.78;;;5.32;;
11604;SDS011;5858;43.076;25.626;2023-08-31T15:44:08;5.43;;;4.68;;
11604;SDS011;5858;43.076;25.626;2023-08-31T15:49:43;6.43;;;4.57;;
11604;SDS011;5858;43.076;25.626;2023-08-31T15:52:11;8.25;;;4.90;;
11604;SDS011;5858;43.076;25.626;2023-08-31T16:12:26;6.18;;;4.50;;
11604;SDS011;5858;43.076;25.626;2023-08-31T16:42:41;9.38;;;4.55;;
11604;SDS011;5858;43.076;25.626;2023-08-31T16:45:48;6.10;;;5.15;;
11604;SDS011;5858;43.076;25.626;2023-08-31T16:48:43;11.10;;;5.35;;
11604;SDS011;5858;43.076;25.626;2023-08-31T16:55:06;7.15;;;4.55;;
11604;SDS011;5858;43.076;25.626;2023-08-31T17:03:14;6.78;;;4.50;;
11604;SDS011;5858;43.076;25.626;2023-08-31T17:04:43;9.52;;;5.65;;
11604;SDS011;5858;43.076;25.626;2023-08-31T17:10:26;8.60;;;5.43;;
11604;SDS011;5858;43.076;25.626;2023-08-31T17:13:06;6.97;;;5.10;;
11604;SDS011;5858;43.076;25.626;2023-08-31T17:16:06;8.35;;;5.22;;
11604;SDS011;5858;43.076;25.626;2023-08-31T17:18:48;8.32;;;5.72;;
11604;SDS011;5858;43.076;25.626;2023-08-31T17:21:21;7.10;;;5.22;;
11604;SDS011;5858;43.076;25.626;2023-08-31T17:23:52;9.27;;;5.50;;
11604;SDS011;5858;43.076;25.626;2023-08-31T17:26:19;9.13;;;4.53;;
11604;SDS011;5858;43.076;25.626;2023-08-31T17:28:47;9.18;;;5.55;;
11604;SDS011;5858;43.076;25.626;2023-08-31T17:31:22;10.10;;;5.38;;
11604;SDS011;5858;43.076;25.626;2023-08-31T17:33:51;8.07;;;5.00;;
11604;SDS011;5858;43.076;25.626;2023-08-31T18:04:23;15.40;;;9.10;;
11604;SDS011;5858;43.076;25.626;2023-08-31T18:07:17;19.77;;;10.52;;
11604;SDS011;5858;43.076;25.626;2023-08-31T18:10:35;11.43;;;6.78;;
11604;SDS011;5858;43.076;25.626;2023-08-31T18:13:11;7.28;;;5.30;;
11604;SDS011;5858;43.076;25.626;2023-08-31T18:15:43;8.65;;;5.38;;
11604;SDS011;5858;43.076;25.626;2023-08-31T18:18:12;11.82;;;6.10;;
11604;SDS011;5858;43.076;25.626;2023-08-31T18:20:44;6.32;;;5.50;;
11604;SDS011;5858;43.076;25.626;2023-08-31T18:23:14;9.93;;;7.18;;
11604;SDS011;5858;43.076;25.626;2023-08-31T18:25:48;9.63;;;6.68;;
11604;SDS011;5858;43.076;25.626;2023-08-31T18:28:29;11.15;;;6.90;;
11604;SDS011;5858;43.076;25.626;2023-08-31T18:30:56;8.98;;;6.18;;
11604;SDS011;5858;43.076;25.626;2023-08-31T18:33:30;8.88;;;6.20;;
11604;SDS011;5858;43.076;25.626;2023-08-31T18:36:01;7.70;;;5.82;;
11604;SDS011;5858;43.076;25.626;2023-08-31T18:38:29;7.30;;;5.30;;
11604;SDS011;5858;43.076;25.626;2023-08-31T18:40:56;10.10;;;5.43;;
11604;SDS011;5858;43.076;25.626;2023-08-31T18:43:32;8.88;;;5.25;;
11604;SDS011;5858;43.076;25.626;2023-08-31T18:45:59;9.85;;;5.40;;
11604;SDS011;5858;43.076;25.626;2023-08-31T18:48:31;9.93;;;4.65;;
11604;SDS011;5858;43.076;25.626;2023-08-31T18:51:00;8.32;;;4.90;;
11604;SDS011;5858;43.076;25.626;2023-08-31T18:53:28;7.10;;;4.60;;
11604;SDS011;5858;43.076;25.626;2023-08-31T18:55:56;7.50;;;4.95;;
11604;SDS011;5858;43.076;25.626;2023-08-31T18:58:26;6.30;;;5.20;;
11604;SDS011;5858;43.076;25.626;2023-08-31T19:00:55;12.10;;;5.35;;
11604;SDS011;5858;43.076;25.626;2023-08-31T19:03:24;8.07;;;5.18;;
11604;SDS011;5858;43.076;25.626;2023-08-31T19:05:51;6.30;;;5.45;;
11604;SDS011;5858;43.076;25.626;2023-08-31T19:08:18;10.30;;;5.50;;
11604;SDS011;5858;43.076;25.626;2023-08-31T19:10:46;10.52;;;5.60;;
11604;SDS011;5858;43.076;25.626;2023-08-31T19:13:13;7.20;;;6.50;;
11604;SDS011;5858;43.076;25.626;2023-08-31T19:15:40;8.90;;;5.78;;
11604;SDS011;5858;43.076;25.626;2023-08-31T19:21:05;6.72;;;5.80;;
11604;SDS011;5858;43.076;25.626;2023-08-31T19:23:32;7.47;;;5.65;;
11604;SDS011;5858;43.076;25.626;2023-08-31T19:25:59;8.57;;;5.30;;
11604;SDS011;5858;43.076;25.626;2023-08-31T19:28:27;6.07;;;5.40;;
11604;SDS011;5858;43.076;25.626;2023-08-31T19:30:55;8.32;;;5.13;;
11604;SDS011;5858;43.076;25.626;2023-08-31T19:33:22;8.48;;;5.05;;
11604;SDS011;5858;43.076;25.626;2023-08-31T19:35:53;5.97;;;5.10;;
11604;SDS011;5858;43.076;25.626;2023-08-31T19:38:20;9.10;;;4.97;;
11604;SDS011;5858;43.076;25.626;2023-08-31T19:40:48;7.95;;;5.55;;
11604;SDS011;5858;43.076;25.626;2023-08-31T19:43:21;7.43;;;5.18;;
11604;SDS011;5858;43.076;25.626;2023-08-31T19:45:48;11.40;;;5.78;;
11604;SDS011;5858;43.076;25.626;2023-08-31T19:48:15;12.85;;;6.80;;
11604;SDS011;5858;43.076;25.626;2023-08-31T19:50:43;7.63;;;5.68;;
11604;SDS011;5858;43.076;25.626;2023-08-31T19:53:14;8.57;;;6.18;;
11604;SDS011;5858;43.076;25.626;2023-08-31T19:55:41;12.02;;;8.35;;